Puerto Plata, Dominican Republic
Current Conditions -  °F | °C
As of 5:02 PM on Tuesday 27 Jan 2015 (Local Time) from MDPP Reporting Station
Moderate Rain Moderate Rain  
Wind Chill: 79°   Ceiling: 1400
Heat Index: 82°   Visibility: 3mi
Dew Point: 73°   Wind: 7mph
Humidity: 83%   Direction: 300°WNW
Pressure: 29.94"   Gusts: NA
Location:  19.8°N, 70.7°W
Report Text: MDPP 272102Z 30006KT 5000 RA BKN014 26/23 Q1014
Loading
Personal Weather Stations






























Interactive Weather Map New forecast layout! Learn more

10-Day Weather Forecast

Advertisements
Track Severe Weather on mobile